This is the latest recevied weather packets stored in our database for station/object N4HAC. If no packets are shown the sender has not sent any weather packets the latest 10 day(s).
| Time | Temp. | Humidity | Pressure | Rain* | Wind** | Luminosity | Snow |
|---|---|---|---|---|---|---|---|
| 1777916474 | 22.78° C | 39% | 1006.5 hPa | 0 mm | - | 999 W/m² | - |
| 1777916171 | 22.78° C | 40% | 1006.5 hPa | 0 mm | - | 975 W/m² | - |
| 1777915869 | 22.78° C | 39% | 1006.5 hPa | 0 mm | - | 924 W/m² | - |
| 1777915565 | 22.78° C | 40% | 1006.5 hPa | 0 mm | - | 942 W/m² | - |
| 1777915262 | 22.78° C | 40% | 1006.5 hPa | 0 mm | - | 961 W/m² | - |
| 1777914958 | 21.67° C | 38% | 1006.6 hPa | 0 mm | - | 738 W/m² | - |
| 1777914656 | 22.22° C | 40% | 1006.6 hPa | 0 mm | - | 610 W/m² | - |
| 1777914351 | 22.22° C | 41% | 1006.6 hPa | 0 mm | - | 997 W/m² | - |
| 1777914049 | 21.67° C | 39% | 1006.7 hPa | 0 mm | - | 931 W/m² | - |
| 1777913744 | 21.67° C | 41% | 1006.8 hPa | 0 mm | - | 923 W/m² | - |
| 1777913442 | 21.67° C | 40% | 1007 hPa | 0 mm | - | 925 W/m² | - |
| 1777913138 | 21.67° C | 41% | 1007 hPa | 0 mm | - | 1010 W/m² | - |
| 1777912835 | 21.11° C | 43% | 1007 hPa | 0 mm | - | 637 W/m² | - |
| 1777912531 | 21.67° C | 40% | 1006.9 hPa | 0 mm | - | 1015 W/m² | - |
| 1777912228 | 21.11° C | 41% | 1007.1 hPa | 0 mm | - | 941 W/m² | - |
| 1777911924 | 20.56° C | 40% | 1007.3 hPa | 0 mm | - | 965 W/m² | - |
| 1777911620 | 21.11° C | 42% | 1007.3 hPa | 0 mm | - | 904 W/m² | - |
| 1777911316 | 20.56° C | 39% | 1007.6 hPa | 0 mm | - | 897 W/m² | - |
| 1777911015 | 21.11° C | 46% | 1007.5 hPa | 0 mm | - | 897 W/m² | - |
| 1777910712 | 20.56° C | 40% | 1007.6 hPa | 0 mm | - | 892 W/m² | - |
| 1777910408 | 20° C | 40% | 1007.9 hPa | 0 mm | - | 884 W/m² | - |
| 1777910104 | 20° C | 42% | 1007.8 hPa | 0 mm | - | 874 W/m² | - |
| 1777909802 | 20° C | 44% | 1008 hPa | 0 mm | - | 867 W/m² | - |
| 1777909498 | 20° C | 42% | 1007.9 hPa | 0 mm | - | 859 W/m² | - |
| 1777909196 | 20.56° C | 42% | 1008 hPa | 0 mm | - | 850 W/m² | - |
* Rain latest hour (hover to see other rain measurements)
** Current wind speed in m/s (hover to see current wind gust speed)